Flight Track Log - Related Links

Times and Time Zones

All times are in EDT time to prevent confusion due to time zone crossing. See the SKW6492 flight status page for this flight to view local times or setup timezone preferences in your user account.

Time Position Orientation Groundspeed Altitude Reporting Facility
EDT Latitude Longitude Course Direction KTS MPH feet Rate Location/Type
Mon 09:35:33 PM 39.9333 -104.6833 346° North 181 208 7,800  Level Denver TRACON
Mon 09:36:33 PM 40.0000 -104.6667 11° North 236 272 9,500 1,630 Climbing Denver TRACON
Mon 09:37:00 PM 40.1290 -104.9025 346° North  Level Estimated
Mon 09:37:05 PM 40.0308 -104.6619 North 254 292 10,300  Level Denver Center
Mon 09:38:00 PM 40.2180 -104.9793 346° North  Level Estimated
Mon 09:38:07 PM 40.1150 -104.6739 354° North 305 351 12,200  Level Denver Center
Mon 09:39:00 PM 40.3069 -105.0564 348° North  Level Estimated
Mon 09:39:09 PM 40.2075 -104.6981 349° North 315 362 14,500  Level Denver Center
Mon 09:40:00 PM 40.3958 -105.1336 346° North  Level Estimated
Mon 09:40:10 PM 40.2956 -104.7219 348° North 321 369 16,500  Level Denver Center
Mon 09:41:12 PM 40.3858 -104.7456 349° North 330 380 17,800 1,220 Climbing Denver Center
Mon 09:42:13 PM 40.4872 -104.7719 349° North 342 394 19,000 1,171 Climbing Denver Center
Mon 09:43:15 PM 40.5853 -104.7997 348° North 359 413 20,200 1,161 Climbing Denver Center
Mon 09:44:17 PM 40.6892 -104.8253 349° North 377 434 21,400 1,161 Climbing Denver Center
Mon 09:45:19 PM 40.7972 -104.8564 348° North 373 429 22,600 1,122 Climbing Denver Center
Mon 09:46:20 PM 40.8972 -104.9128 337° Northwest 385 443 23,700 1,073 Climbing Denver Center
Mon 09:47:22 PM 40.9831 -104.9994 323° Northwest 386 444 24,800 1,073 Climbing Denver Center
Mon 09:48:23 PM 41.0733 -105.0897 323° Northwest 392 451 25,900 927 Climbing Denver Center
Mon 09:49:25 PM 41.1583 -105.1775 322° Northwest 400 460 26,700 774 Climbing Denver Center
Mon 09:50:27 PM 41.2597 -105.2808 323° Northwest 410 472 27,500 732 Climbing Denver Center
Mon 09:51:28 PM 41.3478 -105.3697 323° Northwest 414 476 28,200 732 Climbing Denver Center
Mon 09:52:30 PM 41.4503 -105.4769 322° Northwest 417 480 29,000 726 Climbing Denver Center
Mon 09:53:32 PM 41.5383 -105.5681 322° Northwest 418 481 29,700 484 Climbing Denver Center
Mon 09:54:34 PM 41.6381 -105.6708 322° Northwest 408 470 30,000 146 Climbing Denver Center
Mon 09:55:35 PM 41.7228 -105.7586 322° Northwest 402 463 30,000  Level Denver Center
Mon 09:56:37 PM 41.8078 -105.8469 322° Northwest 402 463 30,000  Level Denver Center
Mon 09:57:39 PM 41.9086 -105.9517 322° Northwest 407 468 30,000  Level Denver Center
Mon 09:58:40 PM 41.9931 -106.0400 322° Northwest 404 465 30,000  Level Denver Center
Mon 09:59:42 PM 42.0908 -106.1439 322° Northwest 401 461 30,000  Level Denver Center
Mon 10:00:44 PM 42.1744 -106.2336 322° Northwest 401 461 30,000  Level Denver Center
Mon 10:01:45 PM 42.2736 -106.3381 322° Northwest 404 465 30,000  Level Denver Center
Mon 10:02:47 PM 42.3592 -106.4283 322° Northwest 407 468 30,000  Level Denver Center
Mon 10:03:49 PM 42.4428 -106.5189 321° Northwest 404 465 30,000  Level Denver Center
Mon 10:04:50 PM 42.5411 -106.6258 321° Northwest 407 468 30,000  Level Denver Center
Mon 10:05:52 PM 42.6269 -106.7156 322° Northwest 405 466 30,000  Level Denver Center
Mon 10:06:53 PM 42.7261 -106.8233 321° Northwest 408 470 30,000  Level Denver Center
Mon 10:07:55 PM 42.8106 -106.9158 321° Northwest 408 470 30,000  Level Denver Center
Mon 10:08:48 PM 42.8894 -107.0025 321° Northwest 411 473 30,000  Level Salt Lake Center
Mon 10:09:50 PM 42.9775 -107.1114 318° Northwest 409 471 30,000  Level Salt Lake Center
Mon 10:10:51 PM 43.0639 -107.2167 318° Northwest 415 478 30,000  Level Salt Lake Center
Mon 10:11:53 PM 43.1511 -107.3231 318° Northwest 420 483 30,000  Level Salt Lake Center
Mon 10:12:55 PM 43.2397 -107.4292 319° Northwest 422 486 30,000  Level Salt Lake Center
Mon 10:13:56 PM 43.3264 -107.5392 317° Northwest 424 488 30,000  Level Salt Lake Center
Mon 10:14:58 PM 43.4139 -107.6472 318° Northwest 425 489 30,000 -195 Level Salt Lake Center
Mon 10:15:59 PM 43.5206 -107.7781 318° Northwest 427 491 29,600 -732 Descending Salt Lake Center
Mon 10:17:01 PM 43.6042 -107.8833 318° Northwest 410 472 28,500 -1,317 Descending Salt Lake Center
Mon 10:18:02 PM 43.6797 -107.9792 317° Northwest 374 430 26,900 -1,610 Descending Salt Lake Center
Mon 10:19:04 PM 43.7536 -108.0697 318° Northwest 357 411 25,200 -1,659 Descending Salt Lake Center
Mon 10:20:05 PM 43.8242 -108.1586 318° Northwest 346 398 23,500 -1,659 Descending Salt Lake Center
Mon 10:21:07 PM 43.8931 -108.2478 317° Northwest 338 389 21,800 -1,659 Descending Salt Lake Center
Mon 10:22:08 PM 43.9611 -108.3358 317° Northwest 336 387 20,100 -1,659 Descending Salt Lake Center
Mon 10:23:10 PM 44.0269 -108.4197 318° Northwest 329 379 18,400 -1,645 Descending Salt Lake Center
Mon 10:24:12 PM 44.1064 -108.5206 318° Northwest 326 375 16,700 -1,171 Descending Salt Lake Center
Mon 10:25:13 PM 44.1700 -108.6025 317° Northwest 320 368 16,000 -341 Descending Salt Lake Center
Mon 10:26:15 PM 44.2303 -108.6789 318° Northwest 310 357 16,000  Level Salt Lake Center
Mon 10:27:16 PM 44.2836 -108.7461 318° Northwest 277 319 16,000  Level Salt Lake Center
Mon 10:28:18 PM 44.3367 -108.8186 316° Northwest 269 310 16,000  Level Salt Lake Center
Mon 10:29:20 PM 44.2981 -108.9050 238° Southwest 288 331 16,000  Level Salt Lake Center
Mon 10:30:21 PM 44.2536 -108.8369 132° Southeast 264 304 16,000  Level Salt Lake Center
Mon 10:31:23 PM 44.3083 -108.7906 31° Northeast 253 291 16,000 -726 Level Salt Lake Center
Mon 10:32:25 PM 44.3889 -108.7592 16° North 252 290 14,500 -1,512 Descending Salt Lake Center
Mon 10:33:26 PM 44.4514 -108.7267 20° North 247 284 12,900 -1,561 Descending Salt Lake Center
Mon 10:34:28 PM 44.5092 -108.6972 20° North 237 273 11,300 -1,561 Descending Salt Lake Center
Mon 10:35:29 PM 44.5653 -108.6708 19° North 225 259 9,700 -1,561 Descending Salt Lake Center
Mon 10:36:31 PM 44.6158 -108.7161 327° Northwest 222 255 8,100 -829 Descending Salt Lake Center
Mon 10:37:32 PM 44.6456 -108.7786 304° West 221 254 8,000 -293 Descending Salt Lake Center
Mon 10:38:34 PM 44.6239 -108.8406 244° Southwest 194 223 7,500 -293 Descending Salt Lake Center
Mon 10:39:35 PM 44.5956 -108.8925 233° Southwest 178 205 7,400 -585 Descending Salt Lake Center
Mon 10:40:37 PM 44.5625 -108.9503 231° Southwest 166 191 6,300 -629 Descending Salt Lake Center
Mon 10:41:39 PM 44.5367 -108.9972 232° Southwest 165 190 6,100 -194 Descending Salt Lake Center

Login

Don't have an account? Register now (free) for customized features, flight alerts, and more!